Time;durP1;ratioP1;P1;durP2;ratioP2;P2;SDS_P1;SDS_P2;PMS_P1;PMS_P2;Temp;Humidity;BMP_temperature;BMP_pressure;BME280_temperature;BME280_humidity;BME280_pressure;Samples;Min_cycle;Max_cycle;Signal;HPM_P1;HPM_P2
2020/12/03 00:01:11;;;;;;;32.63;11.88;;;;;;;9.13;56.21;100787.47;5009613;28;20032;-71
2020/12/03 00:03:50;;;;;;;25.35;12.00;;;;;;;9.57;55.49;100786.31;5008729;28;20022;-72
2020/12/03 00:06:19;;;;;;;26.92;11.68;;;;;;;9.19;56.43;100773.72;5007842;28;20402;-71
2020/12/03 00:08:50;;;;;;;31.95;12.40;;;;;;;9.44;55.87;100787.28;5006901;28;20121;-71
2020/12/03 00:11:16;;;;;;;27.13;11.88;;;;;;;9.56;55.46;100779.47;5006084;28;20117;-72
2020/12/03 00:13:42;;;;;;;24.00;11.77;;;;;;;9.59;55.72;100774.25;5006450;28;20490;-72
2020/12/03 00:16:08;;;;;;;28.77;12.05;;;;;;;9.49;56.25;100775.22;5005315;28;20037;-72
2020/12/03 00:18:35;;;;;;;29.15;12.18;;;;;;;9.83;55.12;100773.19;5008313;28;20030;-72
2020/12/03 00:21:05;;;;;;;30.05;12.75;;;;;;;9.45;56.20;100766.63;5001047;28;20033;-72
2020/12/03 00:23:30;;;;;;;25.58;11.52;;;;;;;9.56;55.85;100759.66;5007254;28;20029;-73
2020/12/03 00:25:56;;;;;;;34.47;11.65;;;;;;;9.63;55.69;100752.72;5008323;28;20092;-74
2020/12/03 00:28:34;;;;;;;27.48;12.60;;;;;;;9.69;55.43;100754.38;5012329;28;20117;-73
2020/12/03 00:31:00;;;;;;;20.25;10.60;;;;;;;9.80;55.49;100751.69;5007689;28;20038;-73
2020/12/03 00:33:26;;;;;;;32.35;12.65;;;;;;;9.64;55.60;100751.84;5006231;28;20030;-73
2020/12/03 00:35:53;;;;;;;27.13;11.27;;;;;;;9.59;55.72;100763.94;5008766;28;20033;-73
2020/12/03 00:38:21;;;;;;;25.70;13.27;;;;;;;9.41;56.22;100756.34;5007427;28;20034;-73
2020/12/03 00:40:47;;;;;;;29.15;12.57;;;;;;;9.44;56.18;100756.31;5009534;28;20034;-74
2020/12/03 00:43:15;;;;;;;30.17;13.43;;;;;;;8.85;58.44;100759.31;5009234;28;20068;-71
2020/12/03 00:45:42;;;;;;;29.70;12.63;;;;;;;9.42;56.56;100758.06;5005836;28;20030;-72
2020/12/03 00:48:08;;;;;;;25.60;11.48;;;;;;;9.54;56.25;100755.38;5011830;28;20338;-74
2020/12/03 00:50:34;;;;;;;28.20;13.18;;;;;;;8.89;58.25;100753.28;5007255;28;20510;-72
2020/12/03 00:53:00;;;;;;;27.38;11.95;;;;;;;9.34;56.95;100753.81;5006402;28;20057;-70
2020/12/03 00:55:25;;;;;;;29.42;13.00;;;;;;;9.82;55.63;100739.63;5004507;28;20028;-69
2020/12/03 00:57:51;;;;;;;30.52;13.68;;;;;;;9.83;55.27;100729.31;5005263;28;20068;-69
2020/12/03 01:00:20;;;;;;;29.63;14.15;;;;;;;9.89;54.98;100724.09;5021475;28;20149;-70
2020/12/03 01:02:46;;;;;;;33.08;13.88;;;;;;;9.80;55.62;100715.56;5007671;28;20025;-71
2020/12/03 01:05:12;;;;;;;32.35;13.35;;;;;;;9.65;56.15;100719.19;5008342;28;20088;-74
2020/12/03 01:07:38;;;;;;;33.13;12.50;;;;;;;9.77;55.91;100712.16;5009194;28;20044;-72
2020/12/03 01:10:11;;;;;;;29.42;12.82;;;;;;;9.64;56.32;100707.13;4988913;28;20041;-71
2020/12/03 01:12:37;;;;;;;31.02;12.52;;;;;;;9.51;56.44;100693.47;5007985;28;20538;-71
2020/12/03 01:15:04;;;;;;;31.40;14.35;;;;;;;9.53;56.45;100690.03;5004284;28;20054;-72
2020/12/03 01:17:30;;;;;;;32.05;13.23;;;;;;;9.41;56.83;100672.09;5007059;28;20018;-72
2020/12/03 01:19:55;;;;;;;30.95;13.38;;;;;;;9.62;56.16;100676.16;5007207;28;20407;-72
2020/12/03 01:22:21;;;;;;;35.10;14.13;;;;;;;9.32;57.35;100667.84;5007823;28;20113;-71
2020/12/03 01:24:46;;;;;;;32.60;13.35;;;;;;;9.55;56.44;100664.19;5005408;28;20029;-71
2020/12/03 01:27:12;;;;;;;25.98;12.68;;;;;;;9.16;57.46;100655.97;5006702;28;20073;-72
2020/12/03 01:29:40;;;;;;;27.08;13.15;;;;;;;9.31;57.33;100650.69;5007597;28;20549;-71
2020/12/03 01:32:07;;;;;;;32.72;12.20;;;;;;;9.51;56.84;100645.34;5004347;28;20037;-72
2020/12/03 01:34:32;;;;;;;28.13;12.07;;;;;;;9.75;55.99;100653.66;5024172;22;20532;-70
2020/12/03 01:36:58;;;;;;;30.85;12.60;;;;;;;9.77;55.94;100650.19;4992329;28;20041;-70
2020/12/03 01:39:24;;;;;;;30.05;13.18;;;;;;;9.55;56.55;100649.59;4989404;28;20077;-69
2020/12/03 01:41:50;;;;;;;31.00;12.27;;;;;;;9.50;57.04;100647.91;4990218;28;20070;-70
2020/12/03 01:44:33;;;;;;;33.20;13.60;;;;;;;9.33;57.41;100648.06;4991653;28;20080;-70
2020/12/03 01:46:59;;;;;;;26.77;13.02;;;;;;;9.71;56.44;100644.25;4987525;28;20030;-70
2020/12/03 01:49:30;;;;;;;30.80;12.20;;;;;;;9.74;56.18;100639.06;4987931;28;20536;-69
2020/12/03 01:51:56;;;;;;;32.77;12.87;;;;;;;9.22;57.65;100629.25;4987064;28;20039;-70
2020/12/03 01:54:22;;;;;;;29.77;12.98;;;;;;;9.73;56.04;100625.31;4970007;28;20485;-71
2020/12/03 01:57:03;;;;;;;28.70;13.50;;;;;;;9.44;56.81;100623.03;4991446;28;20054;-71
2020/12/03 01:59:35;;;;;;;33.92;13.63;;;;;;;9.53;56.48;100616.91;4988668;28;20625;-70
2020/12/03 02:02:01;;;;;;;27.60;12.73;;;;;;;9.71;56.01;100619.31;4985659;28;20065;-70
2020/12/03 02:04:26;;;;;;;29.17;12.35;;;;;;;9.68;56.23;100619.34;4990078;28;20054;-70
2020/12/03 02:07:03;;;;;;;29.05;12.07;;;;;;;9.09;57.86;100602.75;4991450;28;20037;-70
2020/12/03 02:09:29;;;;;;;24.58;11.32;;;;;;;9.18;57.79;100604.41;4974290;28;20090;-70
2020/12/03 02:11:56;;;;;;;34.60;13.95;;;;;;;9.25;57.46;100600.88;4990721;28;20038;-71
2020/12/03 02:14:21;;;;;;;29.90;12.52;;;;;;;9.56;56.48;100593.69;4989738;28;20042;-69
2020/12/03 02:16:47;;;;;;;31.25;12.77;;;;;;;9.33;57.30;100592.22;4990887;28;20034;-70
2020/12/03 02:19:20;;;;;;;26.40;11.45;;;;;;;9.55;56.47;100586.78;4991441;28;20038;-70
2020/12/03 02:21:53;;;;;;;33.15;11.98;;;;;;;9.81;55.90;100583.06;4991815;28;20026;-70
2020/12/03 02:24:19;;;;;;;33.13;14.02;;;;;;;9.77;55.88;100575.34;4974189;28;20030;-70
2020/12/03 02:26:49;;;;;;;24.85;12.80;;;;;;;9.73;56.04;100567.66;4989613;28;20396;-70
2020/12/03 02:29:17;;;;;;;31.65;12.80;;;;;;;9.26;57.04;100564.75;4977014;28;20105;-70
2020/12/03 02:31:42;;;;;;;32.90;13.15;;;;;;;9.44;56.84;100561.13;5003916;28;20042;-70
2020/12/03 02:34:08;;;;;;;30.17;13.45;;;;;;;8.94;58.07;100553.03;4999709;28;20034;-70
2020/12/03 02:36:33;;;;;;;25.75;11.70;;;;;;;8.43;59.88;100560.31;4985390;28;20034;-70
2020/12/03 02:38:59;;;;;;;31.08;12.07;;;;;;;8.83;58.77;100549.69;4993762;28;20030;-70
2020/12/03 02:41:24;;;;;;;26.50;11.45;;;;;;;8.95;58.18;100556.47;4974277;28;20383;-70
2020/12/03 02:43:50;;;;;;;31.67;13.27;;;;;;;9.05;58.32;100544.34;4993175;28;20053;-71
2020/12/03 02:46:15;;;;;;;31.17;13.60;;;;;;;9.48;57.06;100538.72;4993344;28;20068;-70
2020/12/03 02:48:41;;;;;;;26.77;11.43;;;;;;;9.30;57.33;100535.47;4992010;28;20035;-70
2020/12/03 02:51:06;;;;;;;28.60;11.55;;;;;;;9.22;57.41;100526.13;4993894;28;20045;-70
2020/12/03 02:53:31;;;;;;;30.85;12.88;;;;;;;9.59;56.79;100530.88;4974922;28;20125;-69
2020/12/03 02:55:57;;;;;;;25.05;11.93;;;;;;;9.23;57.71;100517.53;4993591;28;20011;-69
2020/12/03 02:58:23;;;;;;;31.38;12.40;;;;;;;9.26;57.35;100514.91;4991251;28;20528;-70
2020/12/03 03:00:48;;;;;;;28.30;12.82;;;;;;;9.31;57.41;100495.06;4991555;28;20033;-69
2020/12/03 03:03:14;;;;;;;29.48;12.43;;;;;;;9.22;57.52;100488.31;4993219;28;20393;-69
2020/12/03 03:05:39;;;;;;;32.58;12.38;;;;;;;8.75;59.02;100468.19;4993248;28;20035;-69
2020/12/03 03:08:05;;;;;;;31.90;13.45;;;;;;;8.82;58.93;100452.66;4993074;28;20038;-72
2020/12/03 03:10:30;;;;;;;32.83;13.00;;;;;;;8.83;58.74;100461.25;4992208;28;20041;-69
2020/12/03 03:12:56;;;;;;;32.72;14.15;;;;;;;8.94;58.51;100455.09;4991700;28;20042;-69
2020/12/03 03:15:21;;;;;;;31.75;14.02;;;;;;;8.71;59.32;100452.75;4984634;28;20038;-72
2020/12/03 03:17:47;;;;;;;31.55;12.43;;;;;;;8.62;59.49;100452.84;4976886;28;20049;-70
2020/12/03 03:20:14;;;;;;;31.42;13.30;;;;;;;9.01;58.60;100458.44;4973392;28;20026;-69
2020/12/03 03:22:40;;;;;;;31.73;12.88;;;;;;;8.70;59.55;100461.34;4984864;28;20026;-70
2020/12/03 03:25:07;;;;;;;32.75;13.30;;;;;;;9.12;58.47;100455.75;4990490;28;20034;-72
2020/12/03 03:27:32;;;;;;;35.67;14.35;;;;;;;9.25;57.66;100454.75;4993141;28;20061;-69
2020/12/03 03:29:58;;;;;;;32.20;12.27;;;;;;;9.02;58.83;100454.16;4996135;28;20137;-70
2020/12/03 03:32:23;;;;;;;31.17;14.05;;;;;;;9.15;57.99;100429.94;4996115;28;20045;-68
2020/12/03 03:34:49;;;;;;;30.83;13.82;;;;;;;9.28;57.76;100420.31;4990293;28;20038;-71
2020/12/03 03:37:14;;;;;;;33.97;12.57;;;;;;;9.49;57.31;100426.94;4996073;28;20033;-70
2020/12/03 03:39:40;;;;;;;34.40;12.80;;;;;;;9.42;57.43;100425.28;4988600;28;20488;-71
2020/12/03 03:42:05;;;;;;;33.15;11.20;;;;;;;9.31;57.84;100422.84;4975005;28;20042;-72
2020/12/03 03:44:31;;;;;;;32.20;12.18;;;;;;;9.58;57.23;100421.66;4991375;28;20038;-69
2020/12/03 03:46:56;;;;;;;37.30;13.40;;;;;;;9.51;57.06;100425.16;4991618;28;20080;-70
2020/12/03 03:49:22;;;;;;;42.95;14.35;;;;;;;8.75;59.11;100427.81;4984863;28;20045;-71
2020/12/03 03:51:47;;;;;;;38.97;13.18;;;;;;;9.08;59.01;100412.84;4992565;28;20040;-68
2020/12/03 03:54:13;;;;;;;36.90;15.05;;;;;;;9.00;58.90;100406.91;4989255;28;20042;-69
2020/12/03 03:56:38;;;;;;;34.72;13.57;;;;;;;9.45;57.77;100408.06;4989984;28;20098;-70
2020/12/03 03:59:04;;;;;;;42.85;14.27;;;;;;;9.55;57.33;100412.22;4990134;28;20042;-69
2020/12/03 04:01:30;;;;;;;31.40;13.32;;;;;;;9.48;57.95;100420.91;4986279;28;20027;-69
2020/12/03 04:03:55;;;;;;;31.92;13.65;;;;;;;9.54;57.35;100419.97;4974106;28;20064;-69
2020/12/03 04:06:21;;;;;;;38.75;14.88;;;;;;;9.56;57.38;100415.66;4988410;28;20034;-70
2020/12/03 04:08:46;;;;;;;39.03;13.88;;;;;;;9.76;56.80;100413.63;4993432;28;20034;-71
2020/12/03 04:11:15;;;;;;;42.17;14.30;;;;;;;9.38;57.93;100405.56;4990782;28;20373;-72
2020/12/03 04:13:40;;;;;;;37.42;14.10;;;;;;;9.81;57.05;100407.56;4988924;28;20109;-70
2020/12/03 04:16:06;;;;;;;30.90;13.10;;;;;;;9.92;56.73;100405.66;4988230;28;20030;-70
2020/12/03 04:18:31;;;;;;;41.88;14.27;;;;;;;9.24;58.77;100393.75;4990848;28;20094;-69
2020/12/03 04:20:59;;;;;;;41.20;15.68;;;;;;;9.76;57.05;100390.41;4991176;28;20034;-71
2020/12/03 04:23:24;;;;;;;39.42;15.57;;;;;;;9.59;57.38;100386.38;4988820;28;20046;-68
2020/12/03 04:25:50;;;;;;;40.65;15.88;;;;;;;9.66;57.27;100383.66;4973937;28;20038;-69
2020/12/03 04:28:16;;;;;;;43.30;12.73;;;;;;;9.30;58.47;100385.06;4990196;28;20030;-69
2020/12/03 04:30:42;;;;;;;39.92;13.85;;;;;;;8.74;60.13;100372.00;4990426;28;20096;-70
2020/12/03 04:33:08;;;;;;;48.35;15.50;;;;;;;9.26;58.77;100363.59;4986948;28;20495;-69
2020/12/03 04:35:36;;;;;;;43.10;15.45;;;;;;;9.03;59.54;100357.91;4989474;28;20493;-70
2020/12/03 04:38:01;;;;;;;47.67;17.95;;;;;;;9.69;57.65;100370.75;4987672;28;20071;-68
2020/12/03 04:40:33;;;;;;;49.67;15.95;;;;;;;9.23;58.92;100363.66;4990258;28;20034;-70
2020/12/03 04:43:13;;;;;;;40.10;12.93;;;;;;;9.68;57.75;100363.84;5000151;28;20578;-70
2020/12/03 04:45:42;;;;;;;45.15;14.07;;;;;;;9.69;57.49;100355.25;4988236;28;20514;-70
2020/12/03 04:48:27;;;;;;;47.97;14.98;;;;;;;9.79;57.20;100358.53;4985775;28;20112;-69
2020/12/03 04:51:14;;;;;;;50.45;16.13;;;;;;;9.84;57.18;100353.28;4987323;28;20380;-72
2020/12/03 04:53:59;;;;;;;44.50;15.98;;;;;;;9.60;57.53;100346.78;4987662;28;20092;-69
2020/12/03 04:56:31;;;;;;;41.42;15.20;;;;;;;9.52;58.37;100350.34;4988628;28;20632;-70
2020/12/03 04:59:48;;;;;;;44.13;14.55;;;;;;;9.59;57.79;100339.94;4985384;28;20455;-70
2020/12/03 05:02:24;;;;;;;41.97;15.73;;;;;;;9.70;57.70;100331.16;4978713;28;20049;-71
2020/12/03 05:05:05;;;;;;;50.17;16.00;;;;;;;9.42;58.78;100338.47;4990930;28;20150;-69
2020/12/03 05:07:30;;;;;;;49.42;16.98;;;;;;;9.32;59.19;100331.72;4972329;28;20477;-70
2020/12/03 05:10:04;;;;;;;43.17;16.83;;;;;;;8.88;60.76;100331.44;4972663;28;20037;-69
2020/12/03 05:12:41;;;;;;;54.92;19.10;;;;;;;9.46;58.61;100323.78;4982883;28;20058;-68
2020/12/03 05:15:30;;;;;;;47.25;17.40;;;;;;;9.16;59.62;100322.53;4998282;28;20031;-71
2020/12/03 05:18:23;;;;;;;45.10;16.67;;;;;;;9.30;59.04;100318.84;4972308;28;20041;-70
2020/12/03 05:20:54;;;;;;;47.53;16.50;;;;;;;9.44;58.82;100320.38;4991400;28;20042;-70
2020/12/03 05:23:22;;;;;;;49.28;18.77;;;;;;;9.56;58.52;100310.72;4965756;28;20041;-71
2020/12/03 05:25:51;;;;;;;55.47;18.33;;;;;;;9.59;58.30;100304.66;4990571;28;20444;-70
2020/12/03 05:28:35;;;;;;;49.22;18.35;;;;;;;9.79;57.78;100306.06;4989367;28;20134;-70
2020/12/03 05:31:07;;;;;;;58.83;18.95;;;;;;;9.48;58.45;100304.81;4973221;28;20036;-71
2020/12/03 05:33:32;;;;;;;53.60;20.33;;;;;;;9.80;57.68;100287.13;4970482;28;20633;-70
2020/12/03 05:35:58;;;;;;;47.95;18.67;;;;;;;9.83;57.70;100287.09;4991145;28;20255;-71
2020/12/03 05:38:25;;;;;;;52.50;18.67;;;;;;;9.39;59.20;100280.91;4991242;28;20065;-71
2020/12/03 05:41:03;;;;;;;53.08;18.90;;;;;;;9.62;58.64;100278.78;4992862;28;20072;-70
2020/12/03 05:43:30;;;;;;;61.42;19.27;;;;;;;9.46;58.89;100272.19;4992577;28;20048;-71
2020/12/03 05:46:02;;;;;;;61.55;19.90;;;;;;;9.50;59.08;100261.81;4994902;28;20084;-71
2020/12/03 05:48:28;;;;;;;49.38;18.83;;;;;;;8.62;61.39;100261.38;4991439;28;20026;-71
2020/12/03 05:50:55;;;;;;;60.50;21.15;;;;;;;9.21;59.71;100251.94;4991443;28;20081;-70
2020/12/03 05:53:21;;;;;;;48.30;18.85;;;;;;;9.61;58.52;100245.31;4991716;28;20672;-72
2020/12/03 05:55:48;;;;;;;48.88;18.55;;;;;;;9.66;58.31;100239.16;4989382;28;20069;-70
2020/12/03 05:58:18;;;;;;;56.00;19.55;;;;;;;9.63;58.48;100243.56;4994937;28;20030;-70
2020/12/03 06:00:44;;;;;;;56.35;20.77;;;;;;;9.13;60.07;100239.19;4994170;28;20034;-70
2020/12/03 06:03:52;;;;;;;53.83;18.40;;;;;;;9.50;59.09;100227.41;4991580;28;20042;-70
2020/12/03 06:06:42;;;;;;;62.15;19.60;;;;;;;9.34;59.61;100225.09;4987300;28;20038;-70
2020/12/03 06:09:21;;;;;;;55.30;21.42;;;;;;;9.60;59.02;100213.50;4992567;28;20035;-70
2020/12/03 06:12:20;;;;;;;62.35;22.90;;;;;;;9.21;59.76;100213.28;4990872;28;20125;-70
2020/12/03 06:14:58;;;;;;;56.25;20.35;;;;;;;9.70;58.67;100201.28;4990551;28;20026;-71
2020/12/03 06:17:29;;;;;;;60.80;21.75;;;;;;;9.77;58.37;100187.38;5006740;28;20037;-71
2020/12/03 06:20:32;;;;;;;58.65;19.17;;;;;;;9.80;58.61;100182.16;4989199;28;20058;-69
2020/12/03 06:23:16;;;;;;;56.58;19.05;;;;;;;9.77;58.58;100180.47;4977168;28;20054;-70
2020/12/03 06:26:11;;;;;;;65.65;22.25;;;;;;;9.90;58.20;100182.84;4977447;28;20037;-69
2020/12/03 06:28:58;;;;;;;68.72;21.00;;;;;;;9.94;58.09;100181.91;4989235;28;20497;-70
2020/12/03 06:31:54;;;;;;;54.22;19.58;;;;;;;9.55;59.39;100181.75;4988727;28;20089;-69
2020/12/03 06:34:27;;;;;;;54.05;20.13;;;;;;;9.73;59.12;100181.44;4990191;28;20042;-69
2020/12/03 06:37:00;;;;;;;56.97;18.90;;;;;;;9.55;59.52;100172.31;4981948;28;20113;-70
2020/12/03 06:39:37;;;;;;;53.03;19.55;;;;;;;9.77;58.77;100172.72;4989216;28;20442;-70
2020/12/03 06:42:16;;;;;;;57.05;20.50;;;;;;;9.59;59.05;100173.06;4986824;28;20046;-72
2020/12/03 06:44:54;;;;;;;59.97;19.83;;;;;;;8.91;61.49;100168.22;4979218;28;20058;-70
2020/12/03 06:47:42;;;;;;;61.22;20.27;;;;;;;9.95;58.72;100168.94;4992692;28;20104;-72
2020/12/03 06:50:36;;;;;;;59.65;21.23;;;;;;;9.30;60.46;100166.69;4983628;28;20035;-70
2020/12/03 06:53:26;;;;;;;53.67;20.20;;;;;;;9.61;59.37;100163.59;4970483;28;20145;-68
2020/12/03 06:56:01;;;;;;;51.83;18.65;;;;;;;9.86;58.79;100163.97;4990000;28;20377;-71
2020/12/03 06:58:48;;;;;;;54.70;20.15;;;;;;;9.78;58.99;100171.03;4984543;28;20448;-69
2020/12/03 07:02:15;;;;;;;60.40;20.55;;;;;;;9.65;59.50;100162.66;4992867;28;20030;-72
2020/12/03 07:05:01;;;;;;;63.70;20.52;;;;;;;9.96;58.70;100162.91;4934385;28;20086;-69
2020/12/03 07:07:34;;;;;;;57.97;21.15;;;;;;;9.54;59.67;100156.84;4997396;28;20098;-69
2020/12/03 07:10:05;;;;;;;65.10;21.58;;;;;;;9.51;60.19;100156.88;4986998;28;20034;-71
2020/12/03 07:12:45;;;;;;;59.00;20.15;;;;;;;9.59;59.82;100149.84;4968228;28;20122;-71
2020/12/03 07:15:29;;;;;;;62.88;18.88;;;;;;;9.65;60.06;100144.59;4991313;28;20073;-70
2020/12/03 07:18:22;;;;;;;53.45;17.75;;;;;;;9.87;59.33;100139.88;4988614;28;20591;-71
2020/12/03 07:21:21;;;;;;;60.13;20.52;;;;;;;9.84;59.27;100146.81;4974380;28;20034;-71
2020/12/03 07:23:56;;;;;;;56.70;20.58;;;;;;;9.50;60.14;100150.88;4993266;28;20492;-71
2020/12/03 07:26:50;;;;;;;55.22;19.02;;;;;;;9.73;59.73;100147.00;4972376;28;20054;-71
2020/12/03 07:29:20;;;;;;;60.92;19.55;;;;;;;9.53;59.85;100142.22;5003503;28;20065;-69
2020/12/03 07:31:50;;;;;;;63.03;20.88;;;;;;;10.01;58.79;100152.50;4989805;28;20052;-70
2020/12/03 07:34:28;;;;;;;60.47;17.65;;;;;;;9.90;59.17;100151.88;4982186;28;20040;-69
2020/12/03 07:37:00;;;;;;;66.15;20.63;;;;;;;9.64;59.85;100153.19;4991221;28;20027;-70
2020/12/03 07:39:29;;;;;;;;;;;;;;;10.06;58.78;100145.50;4988606;28;20042;-70
2020/12/03 07:42:01;;;;;;;52.47;17.70;;;;;;;10.19;58.31;100138.34;4992732;28;19956;-70
2020/12/03 07:44:38;;;;;;;62.95;21.10;;;;;;;10.16;58.13;100141.88;4990700;28;20034;-72
2020/12/03 07:47:33;;;;;;;50.72;20.10;;;;;;;10.15;58.47;100134.13;4988700;28;20042;-70
2020/12/03 07:50:21;;;;;;;55.40;18.77;;;;;;;10.07;58.34;100126.56;4989030;28;20504;-70
2020/12/03 07:53:19;;;;;;;57.63;18.17;;;;;;;10.31;57.80;100124.34;4976937;28;20076;-70
2020/12/03 07:55:45;;;;;;;48.03;18.33;;;;;;;9.92;58.86;100121.72;4988739;28;20129;-69
2020/12/03 07:58:30;;;;;;;52.53;17.55;;;;;;;10.21;57.98;100120.25;4990263;28;20668;-70
2020/12/03 08:00:56;;;;;;;57.70;18.75;;;;;;;9.89;58.85;100117.47;5000701;28;20034;-69
2020/12/03 08:03:38;;;;;;;61.72;21.08;;;;;;;9.84;59.32;100108.09;4986275;28;20037;-69
2020/12/03 08:06:10;;;;;;;50.25;18.88;;;;;;;9.71;59.44;100103.19;4985038;28;20046;-75
2020/12/03 08:08:37;;;;;;;58.58;20.05;;;;;;;9.73;59.77;100096.28;5002449;28;21108;-69
2020/12/03 08:11:05;;;;;;;47.80;19.10;;;;;;;9.67;59.99;100106.72;4988172;28;20120;-70
2020/12/03 08:13:40;;;;;;;58.65;20.15;;;;;;;9.43;60.51;100102.03;4991172;28;20042;-70
2020/12/03 08:16:11;;;;;;;63.03;19.27;;;;;;;9.10;61.62;100089.69;4983415;28;20045;-71
2020/12/03 08:18:43;;;;;;;54.93;19.07;;;;;;;9.02;62.07;100093.28;4988977;28;20046;-69
2020/12/03 08:21:11;;;;;;;;;;;;;;;9.39;60.86;100097.78;4971408;28;20042;-69
2020/12/03 08:23:36;;;;;;;57.92;18.95;;;;;;;9.43;60.70;100102.03;4988952;28;20302;-71
2020/12/03 08:26:02;;;;;;;50.97;18.25;;;;;;;9.11;61.78;100095.72;4988026;28;20057;-68
2020/12/03 08:28:32;;;;;;;55.95;17.90;;;;;;;9.32;61.67;100084.16;4985842;28;20122;-69
2020/12/03 08:31:06;;;;;;;48.92;18.88;;;;;;;9.81;59.97;100082.38;4991016;28;20030;-70
2020/12/03 08:33:35;;;;;;;50.85;16.63;;;;;;;9.80;59.85;100071.19;4971339;28;20141;-70
2020/12/03 08:36:06;;;;;;;53.42;18.88;;;;;;;9.30;61.09;100071.28;4987705;28;20037;-71
2020/12/03 08:38:36;;;;;;;56.38;17.42;;;;;;;9.42;61.02;100079.66;4983808;28;20256;-70
2020/12/03 08:41:05;;;;;;;49.67;17.95;;;;;;;9.90;59.59;100070.09;4989981;28;20042;-69
2020/12/03 08:43:33;;;;;;;53.38;19.92;;;;;;;9.91;59.64;100069.25;4990157;28;20042;-69
2020/12/03 08:48:29;;;;;;;50.97;19.25;;;;;;;9.71;59.75;100071.34;4985542;28;20097;-72
2020/12/03 08:50:59;;;;;;;61.80;19.63;;;;;;;9.76;59.73;100075.56;4984950;28;20035;-71
2020/12/03 08:53:27;;;;;;;57.15;19.15;;;;;;;9.69;60.49;100073.13;4986427;28;20115;-71
2020/12/03 08:55:52;;;;;;;56.42;19.52;;;;;;;9.76;59.89;100057.50;4988084;28;20512;-72
2020/12/03 08:58:22;;;;;;;52.20;20.27;;;;;;;10.00;58.94;100057.84;4985964;28;20038;-71
2020/12/03 09:00:51;;;;;;;58.38;19.35;;;;;;;9.75;59.98;100053.19;4979887;28;20687;-70
2020/12/03 09:03:18;;;;;;;53.00;19.73;;;;;;;9.74;59.73;100040.34;4989709;28;20037;-71
2020/12/03 09:05:44;;;;;;;63.15;20.25;;;;;;;9.74;59.89;100042.94;4991166;28;20510;-72
2020/12/03 09:08:16;;;;;;;55.03;19.73;;;;;;;9.43;60.41;100045.28;4987174;28;20112;-71
2020/12/03 09:10:42;;;;;;;51.03;18.80;;;;;;;9.59;60.58;100044.09;4992020;28;20081;-71
2020/12/03 09:13:08;;;;;;;51.05;20.45;;;;;;;9.65;60.31;100040.53;4986340;28;20070;-70
2020/12/03 09:15:34;;;;;;;68.95;22.17;;;;;;;9.76;59.98;100046.34;4988140;28;20033;-71
2020/12/03 09:18:00;;;;;;;50.00;19.00;;;;;;;9.84;59.53;100030.66;4987864;28;20038;-70
2020/12/03 09:20:26;;;;;;;62.50;19.80;;;;;;;10.01;58.94;100028.56;4985436;28;20121;-71
2020/12/03 09:22:52;;;;;;;66.90;21.35;;;;;;;10.03;58.72;100025.97;4967334;28;20580;-72
2020/12/03 09:25:17;;;;;;;54.90;19.02;;;;;;;10.18;58.71;100023.88;4988285;28;20034;-71
2020/12/03 09:27:48;;;;;;;47.40;18.42;;;;;;;9.63;59.97;100025.09;4987421;28;20034;-72
2020/12/03 09:30:25;;;;;;;55.30;18.57;;;;;;;10.04;59.04;100025.06;4983149;28;20392;-71
2020/12/03 09:33:00;;;;;;;62.30;20.75;;;;;;;9.86;59.78;100019.44;4967727;28;20038;-71
2020/12/03 09:35:28;;;;;;;56.35;19.63;;;;;;;9.91;59.23;100009.88;4980171;28;20046;-70
2020/12/03 09:38:06;;;;;;;47.58;17.45;;;;;;;10.24;58.56;100007.38;4984279;28;20045;-71
2020/12/03 09:40:33;;;;;;;52.90;17.48;;;;;;;10.09;59.15;100000.00;4985170;28;20081;-71
2020/12/03 09:43:00;;;;;;;60.47;21.10;;;;;;;10.10;58.47;99994.81;4983309;28;20113;-71
2020/12/03 09:45:32;;;;;;;54.42;19.65;;;;;;;10.35;58.30;99991.69;4984728;28;20036;-70
2020/12/03 09:47:59;;;;;;;49.90;19.73;;;;;;;10.37;57.97;99982.16;4971554;28;20088;-70
2020/12/03 09:50:25;;;;;;;59.88;18.60;;;;;;;9.67;59.56;99980.28;4970848;28;20113;-73
2020/12/03 09:52:53;;;;;;;56.28;20.33;;;;;;;10.27;58.62;99972.88;4986006;28;20121;-72
2020/12/03 09:55:19;;;;;;;52.60;18.45;;;;;;;10.41;57.94;99972.63;4981416;28;20483;-72
2020/12/03 09:57:55;;;;;;;49.38;18.67;;;;;;;10.08;58.76;99970.75;4985095;28;20088;-72
2020/12/03 10:00:33;;;;;;;58.85;20.77;;;;;;;10.33;58.20;99963.28;4980065;28;20579;-72
2020/12/03 10:03:23;;;;;;;57.60;18.13;;;;;;;10.28;58.42;99959.94;4985658;28;20655;-70
2020/12/03 10:06:04;;;;;;;47.38;19.85;;;;;;;10.12;58.82;99963.78;4978658;28;20053;-71
2020/12/03 10:09:00;;;;;;;53.60;18.52;;;;;;;10.35;58.44;99961.53;4987079;28;20031;-71
2020/12/03 10:11:45;;;;;;;54.13;20.60;;;;;;;10.18;58.78;99943.84;5002173;28;20038;-71
2020/12/03 10:14:31;;;;;;;54.85;19.58;;;;;;;10.46;57.85;99952.66;4992514;28;20042;-71
2020/12/03 10:17:09;;;;;;;52.13;18.38;;;;;;;10.43;58.05;99948.44;4991708;28;20097;-71
2020/12/03 10:19:41;;;;;;;44.30;17.60;;;;;;;9.96;59.43;99942.66;4992636;28;21257;-70
2020/12/03 10:22:19;;;;;;;43.45;16.90;;;;;;;10.51;58.32;99945.63;4974298;28;20038;-70
2020/12/03 10:24:51;;;;;;;53.40;18.60;;;;;;;10.37;58.33;99925.34;4996452;28;20034;-71
2020/12/03 10:27:35;;;;;;;51.00;20.13;;;;;;;10.53;57.95;99925.78;4996586;28;20049;-71
2020/12/03 10:30:07;;;;;;;50.13;19.88;;;;;;;10.27;58.85;99918.66;4989798;28;20145;-71
2020/12/03 10:32:36;;;;;;;;;;;;;;;10.50;58.12;99918.97;4993276;28;20034;-70
2020/12/03 10:35:03;;;;;;;46.33;19.73;;;;;;;10.19;59.30;99908.53;5007257;28;20456;-70
2020/12/03 10:37:54;;;;;;;42.92;18.08;;;;;;;10.32;58.80;99903.94;4992770;28;20038;-71
2020/12/03 10:40:20;;;;;;;45.15;17.25;;;;;;;10.15;59.06;99901.75;4989834;28;20088;-70
2020/12/03 10:42:58;;;;;;;43.05;16.88;;;;;;;10.04;59.62;99902.00;4994700;28;20034;-70
2020/12/03 10:45:30;;;;;;;44.97;17.17;;;;;;;10.06;59.60;99900.22;4990568;28;20067;-70
2020/12/03 10:48:07;;;;;;;42.55;16.98;;;;;;;10.42;58.29;99900.22;4975753;28;20037;-71
2020/12/03 10:50:49;;;;;;;45.08;19.23;;;;;;;10.19;59.24;99888.72;4992100;28;20095;-71
2020/12/03 10:53:18;;;;;;;48.58;17.00;;;;;;;9.92;59.62;99890.25;4992016;28;20088;-70
2020/12/03 10:55:44;;;;;;;51.20;18.63;;;;;;;9.79;60.62;99883.66;4991537;28;20619;-72
2020/12/03 10:58:12;;;;;;;53.75;17.08;;;;;;;10.13;59.64;99891.44;4997485;28;20420;-71
2020/12/03 11:00:42;;;;;;;37.72;16.60;;;;;;;10.35;58.77;99893.53;4992971;28;20030;-71
2020/12/03 11:03:13;;;;;;;56.83;16.92;;;;;;;10.29;58.83;99888.50;4997351;28;20081;-71
2020/12/03 11:05:45;;;;;;;60.25;18.10;;;;;;;10.29;58.96;99894.53;4994337;28;20119;-71
2020/12/03 11:08:10;;;;;;;;;;;;;;;10.36;58.97;99890.06;4989647;28;20071;-71
2020/12/03 11:10:38;;;;;;;38.85;15.73;;;;;;;9.66;61.27;99887.41;4997960;28;19921;-71
2020/12/03 11:13:06;;;;;;;49.88;16.45;;;;;;;10.18;59.34;99879.28;4996823;28;20037;-71
2020/12/03 11:15:31;;;;;;;46.45;16.27;;;;;;;9.01;63.05;99867.34;4993822;28;20113;-71
2020/12/03 11:18:09;;;;;;;48.33;17.42;;;;;;;9.60;61.41;99866.91;4996311;28;20536;-71
2020/12/03 11:20:38;;;;;;;43.90;15.52;;;;;;;10.22;59.73;99866.28;4976401;28;20403;-71
2020/12/03 11:23:08;;;;;;;53.40;17.67;;;;;;;10.03;60.11;99859.00;4989859;28;20038;-71
2020/12/03 11:25:35;;;;;;;46.25;16.38;;;;;;;9.88;60.04;99852.47;4988918;28;20026;-71
2020/12/03 11:28:28;;;;;;;44.75;17.20;;;;;;;9.05;63.10;99845.78;4990434;28;20137;-71
2020/12/03 11:31:02;;;;;;;41.08;16.80;;;;;;;9.93;60.53;99849.78;4988802;28;20041;-71
2020/12/03 11:33:36;;;;;;;44.58;16.80;;;;;;;9.12;63.00;99839.63;5007729;28;20040;-71
2020/12/03 11:36:15;;;;;;;40.97;15.25;;;;;;;9.84;60.76;99831.94;4993414;28;20538;-71
2020/12/03 11:38:51;;;;;;;53.53;18.83;;;;;;;9.88;60.79;99825.81;4990946;28;20679;-72
2020/12/03 11:41:24;;;;;;;41.33;15.50;;;;;;;9.81;60.75;99819.13;4991532;28;20034;-71
2020/12/03 11:49:23;;;;;;;48.22;17.20;;;;;;;9.82;60.84;99810.50;4988679;28;20041;-71